Time;durP1;ratioP1;P1;durP2;ratioP2;P2;SDS_P1;SDS_P2;PMS_P1;PMS_P2;Temp;Humidity;BMP_temperature;BMP_pressure;BME280_temperature;BME280_humidity;BME280_pressure;Samples;Min_cycle;Max_cycle;Signal;HPM_P1;HPM_P2
2023/05/30 00:01:23;;;;;;;4.70;3.40;;;;;;;14.12;58.24;100087.79;218454;1260;140222;-70
2023/05/30 00:06:27;;;;;;;4.80;3.60;;;;;;;14.04;58.19;100085.71;218677;1254;139616;-71
2023/05/30 00:11:30;;;;;;;7.50;4.40;;;;;;;13.93;58.44;100085.61;219193;1259;141606;-74
2023/05/30 00:16:34;;;;;;;6.80;3.70;;;;;;;13.81;58.54;100088.61;218038;1254;139583;-73
2023/05/30 00:21:38;;;;;;;8.60;4.00;;;;;;;13.76;58.97;100086.23;218616;1259;139418;-72
2023/05/30 00:26:40;;;;;;;4.60;3.20;;;;;;;13.69;59.31;100090.17;218166;1257;139288;-72
2023/05/30 00:31:43;;;;;;;6.60;3.60;;;;;;;13.63;59.83;100098.60;219044;1254;140619;-72
2023/05/30 00:36:46;;;;;;;10.10;4.50;;;;;;;13.55;59.58;100094.77;218466;1259;139446;-72
2023/05/30 00:41:50;;;;;;;5.80;3.70;;;;;;;13.44;59.99;100100.30;218588;1254;140166;-71
2023/05/30 00:46:54;;;;;;;7.10;4.60;;;;;;;13.37;60.33;100098.91;219608;1254;138852;-73
2023/05/30 00:51:57;;;;;;;5.90;3.70;;;;;;;13.30;60.44;100100.20;218798;1254;154226;-73
2023/05/30 00:57:01;;;;;;;6.80;5.00;;;;;;;13.25;60.68;100097.84;220605;1254;140450;-74
2023/05/30 01:02:05;;;;;;;6.50;3.80;;;;;;;13.21;60.67;100097.08;220847;1255;140110;-74
2023/05/30 01:07:10;;;;;;;8.10;4.60;;;;;;;13.15;60.69;100098.21;219014;1254;141176;-73
2023/05/30 01:12:19;;;;;;;6.10;5.00;;;;;;;13.08;60.97;100103.71;220495;1254;140740;-75
2023/05/30 01:17:52;;;;;;;5.70;4.40;;;;;;;12.96;60.87;100108.38;218569;1254;140758;-74
2023/05/30 01:23:24;;;;;;;7.10;4.20;;;;;;;12.85;61.16;100110.94;218170;1257;140711;-74
2023/05/30 01:28:32;;;;;;;9.60;4.10;;;;;;;12.73;61.02;100114.80;218687;1259;140805;-75
2023/05/30 01:33:36;;;;;;;15.80;5.60;;;;;;;12.58;61.29;100112.48;218460;1254;141048;-74
2023/05/30 01:38:40;;;;;;;9.70;4.20;;;;;;;12.41;61.50;100116.70;218003;1254;139315;-70
2023/05/30 01:43:42;;;;;;;6.30;3.60;;;;;;;12.21;61.35;100118.64;218648;1254;139402;-76
2023/05/30 01:49:10;;;;;;;8.30;4.70;;;;;;;11.99;61.57;100122.14;218507;1254;140087;-81
2023/05/30 01:54:16;;;;;;;5.70;4.30;;;;;;;11.74;61.83;100127.39;218093;1254;141428;-78
2023/05/30 01:59:24;;;;;;;7.00;4.70;;;;;;;11.62;62.21;100134.73;217942;1255;140783;-79
2023/05/30 02:04:27;;;;;;;9.40;5.50;;;;;;;11.52;62.32;100134.09;218424;1254;139577;-75
2023/05/30 02:09:31;;;;;;;7.10;4.50;;;;;;;11.44;62.67;100139.27;218240;1254;139663;-72
2023/05/30 02:14:36;;;;;;;7.70;4.10;;;;;;;11.35;62.86;100142.41;218600;1254;140933;-71
2023/05/30 02:19:39;;;;;;;4.10;3.70;;;;;;;11.23;62.97;100144.16;218127;1257;140904;-74
2023/05/30 02:24:42;;;;;;;8.10;5.00;;;;;;;11.08;63.26;100141.31;219121;1254;140296;-73
2023/05/30 02:29:45;;;;;;;7.50;5.00;;;;;;;10.93;63.53;100137.27;218343;1254;140181;-73
2023/05/30 02:34:49;;;;;;;16.50;4.80;;;;;;;10.87;64.05;100143.39;217902;1254;139796;-75
2023/05/30 02:39:53;;;;;;;4.90;4.40;;;;;;;10.84;64.25;100144.15;218788;1254;139879;-73
2023/05/30 02:44:56;;;;;;;7.50;4.90;;;;;;;10.77;64.36;100138.05;219072;1258;140819;-73
2023/05/30 02:50:01;;;;;;;5.60;4.50;;;;;;;10.73;64.72;100134.69;219542;1254;140538;-73
2023/05/30 02:55:04;;;;;;;9.30;4.10;;;;;;;10.75;64.97;100141.84;218361;1256;140808;-77
2023/05/30 03:00:10;;;;;;;7.50;4.00;;;;;;;10.78;65.01;100144.48;220577;1257;140965;-77
2023/05/30 03:05:17;;;;;;;5.30;4.30;;;;;;;10.82;65.19;100150.02;220138;1256;139764;-76
2023/05/30 03:10:20;;;;;;;6.80;4.80;;;;;;;10.89;65.19;100152.98;219773;1256;139994;-74
2023/05/30 03:15:23;;;;;;;7.40;4.00;;;;;;;10.94;65.28;100156.75;220073;1256;140188;-69
2023/05/30 03:20:28;;;;;;;6.60;3.90;;;;;;;11.01;65.27;100156.61;218335;1257;140076;-68
2023/05/30 03:25:32;;;;;;;18.20;4.80;;;;;;;11.08;65.48;100156.69;218853;1254;141178;-68
2023/05/30 03:30:36;;;;;;;8.50;4.90;;;;;;;11.18;65.64;100159.51;218704;1258;140756;-69
2023/05/30 03:35:39;;;;;;;12.50;5.50;;;;;;;11.34;65.46;100164.75;218598;1259;140538;-66
2023/05/30 03:40:43;;;;;;;5.20;3.70;;;;;;;11.52;65.42;100168.67;218080;1259;141645;-71
2023/05/30 03:45:46;;;;;;;10.60;3.80;;;;;;;11.69;65.35;100173.19;219138;1254;139323;-70
2023/05/30 03:50:50;;;;;;;5.40;4.10;;;;;;;11.74;65.41;100170.07;218437;1253;139313;-71
2023/05/30 03:55:54;;;;;;;5.90;3.40;;;;;;;11.91;65.22;100174.27;218297;1253;139591;-71
2023/05/30 04:01:00;;;;;;;8.30;3.90;;;;;;;12.06;65.16;100170.71;218392;1253;139581;-69
2023/05/30 04:06:08;;;;;;;8.80;3.90;;;;;;;12.30;65.28;100173.14;217948;1254;139778;-72
2023/05/30 04:11:12;;;;;;;8.10;3.10;;;;;;;12.52;64.81;100178.57;218735;1253;139851;-73
2023/05/30 04:16:16;;;;;;;7.10;3.00;;;;;;;12.76;64.11;100183.94;219220;1254;139582;-71
2023/05/30 04:21:20;;;;;;;5.60;3.10;;;;;;;14.38;62.63;100188.63;219559;1253;140018;-73
2023/05/30 04:26:25;;;;;;;3.60;3.00;;;;;;;16.84;59.55;100190.23;218514;1254;139643;-76
2023/05/30 04:31:29;;;;;;;8.30;3.20;;;;;;;17.54;58.08;100197.38;218613;1254;142043;-73
2023/05/30 04:36:36;;;;;;;12.20;3.20;;;;;;;17.37;56.41;100208.20;218583;1254;139538;-77
2023/05/30 04:41:41;;;;;;;9.20;3.20;;;;;;;18.53;54.49;100218.04;219969;1254;139262;-73
2023/05/30 04:46:46;;;;;;;5.90;3.10;;;;;;;18.61;53.77;100224.80;219477;1256;139507;-79
2023/05/30 04:51:51;;;;;;;;;;;;;;;19.40;52.36;100221.39;219144;1256;140162;-78
2023/05/30 04:56:56;;;;;;;9.40;2.80;;;;;;;19.21;51.54;100218.80;218666;1257;125930;-76
2023/05/30 05:02:00;;;;;;;6.60;2.80;;;;;;;18.87;51.14;100220.56;218563;1255;139323;-75
2023/05/30 05:07:03;;;;;;;8.00;3.40;;;;;;;20.32;48.92;100228.58;220641;1254;139600;-76
2023/05/30 05:12:08;;;;;;;6.80;3.30;;;;;;;23.18;46.53;100229.05;218681;1254;140592;-67
2023/05/30 05:17:12;;;;;;;5.80;3.00;;;;;;;25.68;43.61;100231.10;218002;1254;139597;-70
2023/05/30 05:22:15;;;;;;;7.10;3.20;;;;;;;28.14;40.20;100237.20;219111;1256;140272;-70
2023/05/30 05:27:18;;;;;;;3.80;2.10;;;;;;;30.08;37.77;100250.50;218700;1258;160562;-74
2023/05/30 05:32:21;;;;;;;7.90;2.30;;;;;;;31.77;35.15;100259.71;218159;1258;138989;-79
2023/05/30 05:37:23;;;;;;;11.90;3.00;;;;;;;33.03;33.02;100267.17;218739;1254;139820;-77
2023/05/30 05:42:26;;;;;;;4.10;2.00;;;;;;;34.15;31.26;100270.15;218430;1254;139637;-79
2023/05/30 05:47:30;;;;;;;4.40;2.40;;;;;;;34.95;29.30;100275.33;218116;1254;140487;-80
2023/05/30 05:52:32;;;;;;;2.80;1.50;;;;;;;35.72;28.29;100276.21;218306;1254;139341;-77
2023/05/30 05:57:34;;;;;;;9.60;2.30;;;;;;;36.49;27.13;100284.29;218501;1254;139871;-81
2023/05/30 06:02:37;;;;;;;8.90;1.80;;;;;;;37.01;26.02;100292.11;219013;1256;140164;-73
2023/05/30 06:07:40;;;;;;;2.90;1.60;;;;;;;37.45;25.37;100292.34;217861;1256;139277;-73
2023/05/30 06:12:45;;;;;;;1.90;1.30;;;;;;;37.81;24.84;100307.60;218987;1254;139395;-72
2023/05/30 06:17:49;;;;;;;6.00;1.90;;;;;;;38.07;23.76;100306.02;218028;1254;139970;-72
2023/05/30 06:22:53;;;;;;;1.50;1.10;;;;;;;38.26;23.38;100309.57;217993;1254;139810;-73
2023/05/30 06:27:56;;;;;;;4.20;1.80;;;;;;;38.10;22.88;100308.55;217863;1258;139199;-73
2023/05/30 06:32:59;;;;;;;2.50;1.50;;;;;;;37.88;22.35;100314.16;218245;1256;140694;-72
2023/05/30 06:38:03;;;;;;;3.90;1.20;;;;;;;37.66;22.13;100316.65;218027;1258;139943;-72
2023/05/30 06:43:06;;;;;;;2.10;1.20;;;;;;;37.54;22.08;100319.48;217939;1256;139944;-71
2023/05/30 06:48:08;;;;;;;5.90;2.70;;;;;;;37.17;21.88;100317.59;217963;1254;139212;-74
2023/05/30 06:53:12;;;;;;;8.20;1.80;;;;;;;37.04;21.76;100316.66;220697;1255;140017;-72
2023/05/30 06:58:17;;;;;;;2.70;1.10;;;;;;;36.94;21.46;100321.77;220744;1254;141773;-73
2023/05/30 07:03:20;;;;;;;1.10;0.90;;;;;;;36.80;21.17;100320.25;218460;1255;140196;-72
2023/05/30 07:08:23;;;;;;;3.90;1.80;;;;;;;36.56;21.13;100317.06;218100;1255;139619;-70
2023/05/30 07:13:27;;;;;;;2.60;0.90;;;;;;;36.28;21.18;100319.65;219927;1254;139519;-71
2023/05/30 07:18:30;;;;;;;3.20;1.60;;;;;;;35.84;21.11;100321.59;218152;1254;140340;-72
2023/05/30 07:23:35;;;;;;;3.00;1.00;;;;;;;35.10;21.39;100324.68;218983;1257;139662;-69
2023/05/30 07:28:38;;;;;;;4.20;1.90;;;;;;;34.24;22.16;100330.95;218739;1253;140592;-73
2023/05/30 07:33:43;;;;;;;4.80;1.60;;;;;;;33.32;22.56;100331.53;217906;1257;139887;-70
2023/05/30 07:38:47;;;;;;;2.00;1.60;;;;;;;32.51;22.92;100330.15;218648;1257;139845;-71
2023/05/30 07:43:52;;;;;;;5.50;2.40;;;;;;;31.45;23.16;100328.10;217977;1257;140505;-70
2023/05/30 07:48:55;;;;;;;6.00;1.70;;;;;;;30.49;23.79;100331.30;218474;1254;140011;-72
2023/05/30 07:53:58;;;;;;;6.40;1.60;;;;;;;29.84;25.04;100329.84;217842;1254;140213;-69
2023/05/30 07:59:01;;;;;;;4.40;1.40;;;;;;;29.43;24.96;100326.20;217629;1255;139596;-84
2023/05/30 08:04:04;;;;;;;4.20;1.50;;;;;;;29.06;25.47;100326.83;217884;1254;140562;-80
2023/05/30 08:09:07;;;;;;;3.70;1.80;;;;;;;28.51;25.90;100331.52;218029;1254;140505;-77
2023/05/30 08:14:10;;;;;;;9.40;2.30;;;;;;;27.89;26.37;100326.66;219608;1254;140255;-71
2023/05/30 08:19:12;;;;;;;37.00;4.80;;;;;;;27.60;27.14;100328.94;218454;1257;139769;-71
2023/05/30 08:24:18;;;;;;;6.20;2.00;;;;;;;27.36;27.13;100327.14;218118;1257;139896;-74
2023/05/30 08:29:21;;;;;;;4.80;1.80;;;;;;;27.12;27.74;100331.05;218289;1259;139468;-76
2023/05/30 08:34:28;;;;;;;4.10;1.10;;;;;;;26.87;27.93;100334.95;217815;1254;139371;-76
2023/05/30 08:39:42;;;;;;;5.60;1.80;;;;;;;26.77;28.22;100330.95;218278;1254;139561;-81
2023/05/30 08:44:45;;;;;;;5.80;2.30;;;;;;;26.75;28.63;100331.86;219193;1254;140279;-73
2023/05/30 08:49:52;;;;;;;5.70;2.50;;;;;;;26.71;29.11;100335.70;218747;1257;139356;-71
2023/05/30 08:54:58;;;;;;;5.00;2.50;;;;;;;26.65;29.23;100341.06;218568;1257;139365;-76
2023/05/30 09:00:05;;;;;;;6.10;2.10;;;;;;;26.40;29.18;100342.46;219398;1256;139943;-72
2023/05/30 09:05:09;;;;;;;4.70;2.40;;;;;;;26.05;29.56;100342.75;218873;1259;139265;-75
2023/05/30 09:10:13;;;;;;;5.80;2.60;;;;;;;26.05;29.82;100337.23;220636;1256;139231;-71
2023/05/30 09:15:16;;;;;;;4.70;2.00;;;;;;;25.92;30.15;100341.81;218689;1256;141808;-69
2023/05/30 09:20:22;;;;;;;2.40;1.90;;;;;;;25.66;30.18;100347.18;219103;1256;139371;-67
2023/05/30 09:25:43;;;;;;;100.40;9.70;;;;;;;25.52;30.48;100342.98;217569;1255;140823;-67
2023/05/30 09:30:58;;;;;;;4.40;2.60;;;;;;;25.54;30.53;100339.65;218194;1259;140340;-71
2023/05/30 09:36:05;;;;;;;3.80;2.00;;;;;;;25.64;30.93;100339.52;219217;1256;140280;-68
2023/05/30 09:41:08;;;;;;;5.00;2.70;;;;;;;25.65;30.66;100337.52;218651;1256;139177;-73
2023/05/30 09:46:11;;;;;;;6.20;2.60;;;;;;;25.58;30.72;100335.80;217864;1256;140527;-74
2023/05/30 09:51:19;;;;;;;5.80;2.30;;;;;;;25.69;31.22;100341.21;218131;1256;139702;-76
2023/05/30 09:56:33;;;;;;;8.60;2.10;;;;;;;25.65;30.60;100345.44;217198;1256;880585;-74
2023/05/30 10:01:40;;;;;;;6.80;2.10;;;;;;;25.62;31.00;100352.69;218432;1256;140043;-76
2023/05/30 10:06:46;;;;;;;4.40;2.00;;;;;;;25.65;31.16;100355.95;218321;1256;139275;-70
2023/05/30 10:11:51;;;;;;;3.50;1.90;;;;;;;25.69;31.02;100356.67;217373;1257;139639;-70
2023/05/30 10:17:07;;;;;;;4.50;2.00;;;;;;;25.71;31.12;100362.62;218682;1256;141018;-71
2023/05/30 10:22:12;;;;;;;2.80;1.40;;;;;;;25.47;30.40;100364.04;217804;1257;140445;-70
2023/05/30 10:27:21;;;;;;;4.50;2.20;;;;;;;25.30;30.69;100360.77;219191;1257;139717;-72
2023/05/30 10:32:26;;;;;;;4.50;2.00;;;;;;;24.94;30.62;100358.71;217792;1257;140018;-72
2023/05/30 10:37:30;;;;;;;4.80;2.20;;;;;;;25.00;31.63;100354.10;218899;1257;139682;-71
2023/05/30 10:42:51;;;;;;;5.10;2.70;;;;;;;25.04;31.69;100363.05;218061;1257;139357;-70
2023/05/30 10:48:13;;;;;;;3.00;1.40;;;;;;;25.08;31.16;100359.38;219180;1257;141025;-70
2023/05/30 10:53:17;;;;;;;4.30;2.10;;;;;;;25.09;31.07;100355.46;219186;1257;140757;-69
2023/05/30 10:58:46;;;;;;;6.50;2.00;;;;;;;25.02;30.85;100347.90;220275;1256;139658;-71
2023/05/30 11:04:13;;;;;;;3.90;1.70;;;;;;;25.23;31.41;100346.67;220389;1256;139175;-71
2023/05/30 11:09:18;;;;;;;5.30;1.70;;;;;;;25.41;31.00;100350.41;220348;1259;140102;-71
2023/05/30 11:14:29;;;;;;;7.40;2.10;;;;;;;24.91;30.98;100350.64;220362;1256;140186;-70
2023/05/30 11:19:36;;;;;;;8.30;2.40;;;;;;;25.04;30.96;100352.42;220498;1256;139379;-72
2023/05/30 11:24:40;;;;;;;4.50;2.10;;;;;;;24.62;30.68;100353.04;218253;1257;139279;-70
2023/05/30 11:29:48;;;;;;;6.80;2.40;;;;;;;24.13;30.80;100359.06;218409;1259;139880;-70
2023/05/30 11:34:58;;;;;;;3.30;2.70;;;;;;;24.06;30.57;100348.51;219108;1257;140509;-70
2023/05/30 11:40:12;;;;;;;3.50;1.90;;;;;;;24.30;31.12;100347.54;217944;1257;139403;-70
2023/05/30 11:45:15;;;;;;;3.50;2.10;;;;;;;24.51;31.26;100354.74;219348;1257;139950;-69
2023/05/30 11:50:19;;;;;;;27.40;4.00;;;;;;;24.51;30.98;100352.79;218295;1259;139533;-70
2023/05/30 11:55:23;;;;;;;7.70;2.70;;;;;;;24.68;31.20;100356.16;218057;1257;139488;-69
2023/05/30 12:00:25;;;;;;;4.70;2.30;;;;;;;24.79;31.06;100353.98;218738;1257;139602;-71
2023/05/30 12:05:29;;;;;;;6.60;1.70;;;;;;;24.84;30.81;100353.66;217841;1257;139675;-68
2023/05/30 12:10:31;;;;;;;9.70;2.00;;;;;;;24.73;30.39;100349.05;218520;1257;139732;-69
2023/05/30 12:15:36;;;;;;;4.80;2.40;;;;;;;24.53;30.34;100345.27;218122;1257;139317;-71
2023/05/30 12:20:46;;;;;;;3.50;2.40;;;;;;;24.35;30.17;100349.10;217776;1257;140880;-71
2023/05/30 12:25:52;;;;;;;9.90;3.00;;;;;;;24.14;30.53;100347.70;217526;1257;139425;-69
2023/05/30 12:30:56;;;;;;;4.90;2.70;;;;;;;24.04;30.68;100350.84;218358;1257;139737;-69
2023/05/30 12:35:58;;;;;;;4.10;1.90;;;;;;;23.99;30.39;100352.20;218364;1257;139351;-67
2023/05/30 12:41:01;;;;;;;3.40;1.90;;;;;;;23.95;30.54;100349.70;217756;1256;219876;-69
2023/05/30 12:46:12;;;;;;;3.20;2.20;;;;;;;23.86;30.32;100355.79;218542;1257;141857;-70
2023/05/30 12:51:16;;;;;;;2.00;1.80;;;;;;;23.86;30.89;100355.94;218110;1257;139939;-68
2023/05/30 12:56:19;;;;;;;3.30;2.10;;;;;;;23.80;30.31;100359.14;218155;1257;139585;-70
2023/05/30 13:01:21;;;;;;;8.40;2.10;;;;;;;23.74;30.01;100356.61;218461;1255;140660;-70
2023/05/30 13:06:24;;;;;;;8.20;2.30;;;;;;;23.65;29.98;100354.03;219397;1257;140760;-70
2023/05/30 13:11:27;;;;;;;4.20;1.80;;;;;;;23.64;30.23;100348.29;219839;1257;140046;-71
2023/05/30 13:16:29;;;;;;;8.30;2.30;;;;;;;23.65;30.69;100355.73;220572;1256;139773;-71
2023/05/30 13:21:31;;;;;;;2.80;2.20;;;;;;;23.64;30.67;100357.38;220219;1257;139700;-73
2023/05/30 13:26:34;;;;;;;3.70;1.80;;;;;;;23.59;30.44;100358.07;218719;1256;139831;-71
2023/05/30 13:31:36;;;;;;;4.60;2.10;;;;;;;23.57;30.01;100349.75;217923;1257;140224;-70
2023/05/30 13:36:39;;;;;;;3.10;1.80;;;;;;;23.65;30.25;100350.89;218424;1257;139804;-69
2023/05/30 13:41:42;;;;;;;7.20;1.80;;;;;;;23.57;30.17;100349.56;218719;1257;139351;-70
2023/05/30 13:46:48;;;;;;;6.30;2.20;;;;;;;23.51;29.93;100348.52;218596;1257;139230;-70
2023/05/30 13:52:03;;;;;;;4.50;1.50;;;;;;;23.44;29.39;100348.27;218724;1257;139083;-73
2023/05/30 13:57:09;;;;;;;5.30;2.20;;;;;;;23.31;29.45;100346.53;218879;1257;139968;-72
2023/05/30 14:02:13;;;;;;;3.30;1.70;;;;;;;23.31;29.43;100345.92;217929;1257;139141;-72
2023/05/30 14:07:17;;;;;;;;;;;;;;;23.23;29.64;100342.83;218249;1259;140698;-72
2023/05/30 14:12:21;;;;;;;2.30;1.80;;;;;;;23.14;29.61;100344.00;218243;1256;126374;-72
2023/05/30 14:17:34;;;;;;;2.90;1.40;;;;;;;23.14;29.63;100345.21;218082;1257;141777;-71
2023/05/30 14:22:37;;;;;;;4.00;2.40;;;;;;;23.09;29.50;100341.44;218512;1257;140310;-72
2023/05/30 14:27:42;;;;;;;2.50;1.60;;;;;;;22.99;29.81;100344.95;218334;1257;140581;-71
2023/05/30 14:32:45;;;;;;;3.30;1.50;;;;;;;22.95;29.92;100346.39;218175;1259;139641;-71
2023/05/30 14:37:49;;;;;;;9.10;5.00;;;;;;;22.95;30.07;100338.68;217626;1255;139570;-72
2023/05/30 14:42:52;;;;;;;5.90;2.80;;;;;;;22.87;29.64;100337.26;218274;1257;139824;-72
2023/05/30 14:47:55;;;;;;;3.50;1.90;;;;;;;22.79;29.68;100341.96;218000;1257;141470;-71
2023/05/30 14:53:00;;;;;;;3.90;1.60;;;;;;;22.73;29.37;100342.16;218662;1260;140175;-71
2023/05/30 14:58:06;;;;;;;10.40;2.10;;;;;;;22.66;29.16;100341.48;219636;1257;140434;-73
2023/05/30 15:03:10;;;;;;;3.00;1.40;;;;;;;22.63;29.03;100342.04;219442;1257;139432;-72
2023/05/30 15:08:13;;;;;;;3.50;1.50;;;;;;;22.61;28.74;100339.96;219488;1257;140262;-73
2023/05/30 15:13:17;;;;;;;3.60;1.70;;;;;;;22.54;28.45;100342.20;220408;1257;140988;-72
2023/05/30 15:18:19;;;;;;;4.00;2.00;;;;;;;22.52;28.80;100342.18;220586;1255;140369;-73
2023/05/30 15:23:22;;;;;;;2.90;2.00;;;;;;;22.54;28.75;100338.40;219656;1257;139539;-72
2023/05/30 15:28:25;;;;;;;3.80;2.30;;;;;;;22.50;28.99;100334.94;218821;1259;140281;-71
2023/05/30 15:33:31;;;;;;;2.70;2.00;;;;;;;22.44;29.23;100337.69;218564;1258;140521;-73
2023/05/30 15:38:34;;;;;;;7.90;2.60;;;;;;;22.35;29.44;100330.31;219993;1259;139546;-73
2023/05/30 15:43:37;;;;;;;4.50;2.00;;;;;;;22.27;30.01;100331.00;219287;1256;139134;-72
2023/05/30 15:48:40;;;;;;;6.00;2.90;;;;;;;22.22;30.38;100334.98;217797;1257;140422;-72
2023/05/30 15:53:44;;;;;;;1.70;1.60;;;;;;;22.13;30.66;100336.59;218320;1257;139831;-72
2023/05/30 15:58:47;;;;;;;2.40;2.00;;;;;;;22.05;30.64;100338.03;217910;1257;140748;-74
2023/05/30 16:03:52;;;;;;;3.50;1.90;;;;;;;21.89;30.76;100335.60;218318;1256;138784;-72
2023/05/30 16:09:00;;;;;;;10.50;2.00;;;;;;;21.74;30.93;100337.02;217731;1257;139142;-72
2023/05/30 16:14:05;;;;;;;8.70;1.60;;;;;;;21.65;30.81;100336.56;218397;1257;139883;-73
2023/05/30 16:19:10;;;;;;;3.90;2.00;;;;;;;21.56;31.14;100344.71;218252;1257;139600;-73
2023/05/30 16:24:13;;;;;;;19.70;3.10;;;;;;;21.54;31.45;100343.81;218703;1257;139624;-74
2023/05/30 16:29:16;;;;;;;1.90;1.80;;;;;;;21.56;31.19;100346.72;217883;1257;139396;-74
2023/05/30 16:34:19;;;;;;;4.60;2.40;;;;;;;21.50;31.10;100351.57;218633;1257;139881;-74
2023/05/30 16:39:23;;;;;;;7.20;1.90;;;;;;;21.46;31.17;100350.66;217906;1257;142132;-74
2023/05/30 16:44:29;;;;;;;3.30;1.80;;;;;;;21.41;31.37;100353.77;217596;1257;139980;-73
2023/05/30 16:49:37;;;;;;;4.50;1.60;;;;;;;21.35;31.30;100355.59;218106;1256;139590;-73
2023/05/30 16:54:43;;;;;;;2.60;1.50;;;;;;;21.23;31.17;100363.36;218371;1257;139478;-73
2023/05/30 16:59:47;;;;;;;11.00;2.60;;;;;;;21.06;31.07;100357.80;220422;1257;139338;-75
2023/05/30 17:04:54;;;;;;;2.30;1.80;;;;;;;20.96;31.29;100365.61;218978;1256;139790;-73
2023/05/30 17:10:00;;;;;;;3.10;1.50;;;;;;;20.88;31.54;100365.48;219670;1257;139414;-74
2023/05/30 17:15:05;;;;;;;4.00;1.50;;;;;;;20.81;31.66;100374.27;218400;1256;139449;-74
2023/05/30 17:20:12;;;;;;;3.60;1.40;;;;;;;20.73;31.65;100379.46;220393;1257;138974;-74
2023/05/30 17:25:20;;;;;;;2.80;1.10;;;;;;;20.66;31.84;100380.98;219274;1257;139208;-74
2023/05/30 17:30:24;;;;;;;5.60;1.90;;;;;;;20.57;31.86;100388.16;219585;1261;141421;-74
2023/05/30 17:35:33;;;;;;;2.30;1.30;;;;;;;20.43;31.85;100387.86;218450;1256;140537;-73
2023/05/30 17:40:46;;;;;;;4.10;1.90;;;;;;;20.33;32.40;100393.06;218262;1260;139368;-71
2023/05/30 17:45:52;;;;;;;2.20;1.60;;;;;;;20.22;32.93;100396.71;217932;1257;140473;-73
2023/05/30 17:50:56;;;;;;;6.00;1.60;;;;;;;20.04;32.90;100398.14;219567;1256;140527;-73
2023/05/30 17:56:01;;;;;;;4.50;2.00;;;;;;;19.91;32.99;100400.61;217644;1261;140345;-73
2023/05/30 18:01:06;;;;;;;;;;;;;;;19.79;33.60;100399.66;217784;1259;140108;-74
2023/05/30 18:06:14;;;;;;;2.60;1.70;;;;;;;19.59;34.07;100397.88;218222;1260;125890;-73
2023/05/30 18:11:33;;;;;;;5.60;1.80;;;;;;;19.40;35.48;100396.35;218857;1258;139618;-75
2023/05/30 18:16:37;;;;;;;3.20;1.90;;;;;;;19.17;36.56;100400.94;218285;1260;139400;-74
2023/05/30 18:21:42;;;;;;;3.00;2.10;;;;;;;18.95;37.48;100402.88;218067;1258;139406;-69
2023/05/30 18:26:46;;;;;;;3.00;1.80;;;;;;;18.73;38.30;100403.79;218020;1260;140951;-74
2023/05/30 18:31:51;;;;;;;10.30;2.30;;;;;;;18.50;38.86;100416.46;218133;1256;140328;-75
2023/05/30 18:36:55;;;;;;;4.50;1.80;;;;;;;18.28;39.67;100417.92;218478;1258;139517;-75
2023/05/30 18:42:08;;;;;;;4.30;1.70;;;;;;;18.04;40.16;100423.50;217957;1257;139996;-76
2023/05/30 18:47:32;;;;;;;4.30;1.40;;;;;;;17.78;40.56;100427.48;219301;1257;140191;-78
2023/05/30 18:52:44;;;;;;;3.10;2.60;;;;;;;17.57;40.75;100434.56;219172;1259;141496;-79
2023/05/30 18:57:59;;;;;;;4.00;2.60;;;;;;;17.36;41.30;100437.64;220638;1260;139559;-78
2023/05/30 19:03:01;;;;;;;3.10;1.60;;;;;;;17.19;41.87;100442.94;219750;1258;143745;-78
2023/05/30 19:08:07;;;;;;;2.00;1.50;;;;;;;17.01;42.26;100446.77;218310;1255;139355;-80
2023/05/30 19:13:11;;;;;;;8.50;2.30;;;;;;;16.85;42.92;100450.16;220291;1257;141194;-76
2023/05/30 19:18:15;;;;;;;5.10;2.00;;;;;;;16.67;43.47;100459.39;220320;1257;139257;-78
2023/05/30 19:23:20;;;;;;;4.20;1.50;;;;;;;16.49;44.21;100458.67;219040;1257;139784;-78
2023/05/30 19:28:24;;;;;;;6.50;2.00;;;;;;;16.30;44.89;100464.20;219820;1257;140217;-79
2023/05/30 19:33:28;;;;;;;5.20;1.80;;;;;;;16.11;45.24;100467.95;219323;1257;140342;-74
2023/05/30 19:38:31;;;;;;;4.00;2.10;;;;;;;15.91;45.48;100470.57;218218;1260;138993;-83
2023/05/30 19:43:35;;;;;;;3.00;1.70;;;;;;;15.70;45.83;100465.06;219360;1257;139829;-77
2023/05/30 19:48:39;;;;;;;2.20;1.70;;;;;;;15.46;46.19;100472.02;218443;1257;140360;-78
2023/05/30 19:53:42;;;;;;;4.20;1.70;;;;;;;15.22;46.99;100474.71;217996;1257;138749;-76
2023/05/30 19:58:47;;;;;;;2.40;1.30;;;;;;;14.97;47.28;100479.08;218436;1257;140347;-74
2023/05/30 20:03:57;;;;;;;7.00;1.90;;;;;;;14.68;48.02;100483.98;218180;1257;139152;-77
2023/05/30 20:09:01;;;;;;;16.20;2.60;;;;;;;14.44;48.89;100487.80;218118;1257;139202;-77
2023/05/30 20:14:06;;;;;;;2.30;1.00;;;;;;;14.26;49.81;100488.33;217948;1257;140403;-85
2023/05/30 20:19:09;;;;;;;2.40;1.50;;;;;;;14.01;50.09;100493.27;218085;1257;139711;-70
2023/05/30 20:24:12;;;;;;;5.70;1.80;;;;;;;13.82;51.10;100499.33;218668;1257;141158;-84
2023/05/30 20:29:16;;;;;;;5.30;2.40;;;;;;;13.62;51.44;100496.77;217667;1257;140408;-71
2023/05/30 20:34:19;;;;;;;3.80;2.00;;;;;;;13.44;51.92;100499.81;218027;1257;139615;-84
2023/05/30 20:39:22;;;;;;;8.00;1.90;;;;;;;13.23;52.20;100504.64;218217;1260;140524;-75
2023/05/30 20:44:27;;;;;;;5.50;1.90;;;;;;;12.99;52.80;100505.45;218074;1257;139972;-75
2023/05/30 20:49:32;;;;;;;1.80;1.70;;;;;;;12.77;53.49;100505.19;219570;1257;139677;-73
2023/05/30 20:54:36;;;;;;;7.10;2.00;;;;;;;12.59;53.74;100512.01;218467;1257;139661;-71
2023/05/30 20:59:39;;;;;;;3.20;1.80;;;;;;;12.51;54.46;100516.42;218897;1260;139264;-73
2023/05/30 21:04:45;;;;;;;2.30;2.10;;;;;;;12.34;54.87;100521.15;219489;1257;139618;-76
2023/05/30 21:09:48;;;;;;;2.10;1.40;;;;;;;12.22;55.34;100522.10;220695;1256;139771;-76
2023/05/30 21:14:50;;;;;;;2.40;2.20;;;;;;;12.11;55.79;100520.05;218806;1257;139486;-74
2023/05/30 21:19:54;;;;;;;8.40;2.60;;;;;;;11.92;56.47;100522.03;218531;1256;139722;-71
2023/05/30 21:24:56;;;;;;;16.90;2.90;;;;;;;11.74;56.70;100531.54;219723;1256;139960;-72
2023/05/30 21:29:59;;;;;;;42.60;5.60;;;;;;;11.56;57.27;100535.80;218586;1256;139818;-68
2023/05/30 21:35:03;;;;;;;25.70;5.20;;;;;;;11.35;57.53;100542.95;217680;1257;140020;-70
2023/05/30 21:40:06;;;;;;;17.30;4.30;;;;;;;11.15;57.73;100543.46;218818;1260;140391;-70
2023/05/30 21:45:11;;;;;;;14.40;4.10;;;;;;;10.92;58.03;100541.56;217933;1259;140606;-69
2023/05/30 21:50:13;;;;;;;7.30;2.90;;;;;;;10.76;58.50;100549.77;217730;1257;234412;-68
2023/05/30 21:55:16;;;;;;;7.70;2.60;;;;;;;10.64;58.89;100554.20;217328;1259;501590;-71
2023/05/30 22:00:20;;;;;;;7.90;1.90;;;;;;;10.49;59.23;100554.39;217850;1257;139706;-68
2023/05/30 22:05:23;;;;;;;7.70;3.00;;;;;;;10.31;59.44;100554.35;218343;1256;140118;-75
2023/05/30 22:10:26;;;;;;;8.40;3.00;;;;;;;10.15;59.87;100562.50;218336;1260;139477;-71
2023/05/30 22:15:29;;;;;;;2.10;1.90;;;;;;;10.13;60.40;100565.08;218353;1259;140234;-83
2023/05/30 22:20:34;;;;;;;10.30;2.60;;;;;;;10.03;60.36;100568.18;218330;1256;139157;-71
2023/05/30 22:25:39;;;;;;;4.00;2.80;;;;;;;9.91;60.89;100566.81;218452;1257;140612;-79
2023/05/30 22:30:42;;;;;;;6.40;2.50;;;;;;;9.75;61.11;100571.29;218262;1257;234112;-80
2023/05/30 22:35:46;;;;;;;3.20;2.10;;;;;;;9.62;61.38;100573.40;218229;1255;139735;-83
2023/05/30 22:40:51;;;;;;;5.40;2.20;;;;;;;9.50;61.85;100569.54;218767;1256;139727;-85
2023/05/30 22:45:55;;;;;;;6.00;2.10;;;;;;;9.40;62.02;100570.88;218523;1256;139109;-82
2023/05/30 22:50:59;;;;;;;2.30;2.10;;;;;;;9.31;62.65;100574.48;218892;1257;140215;-73
2023/05/30 22:56:03;;;;;;;10.00;3.50;;;;;;;9.23;62.78;100577.29;217972;1256;139947;-87
2023/05/30 23:01:07;;;;;;;6.00;2.80;;;;;;;9.27;63.19;100574.59;218752;1256;140545;-88
2023/05/30 23:06:10;;;;;;;6.40;2.80;;;;;;;9.37;63.78;100583.07;219406;1255;140908;-72